sensor_id;sensor_type;location;lat;lon;timestamp;P1;durP1;ratioP1;P2;durP2;ratioP2
53674;SDS011;39574;50.534;8.500;2022-11-09T00:03:44;3.6;;;1.9;;
53674;SDS011;39574;50.534;8.500;2022-11-09T00:08:43;3.2;;;1.8;;
53674;SDS011;39574;50.534;8.500;2022-11-09T00:13:43;3.5;;;1.8;;
53674;SDS011;39574;50.534;8.500;2022-11-09T00:18:42;3.8;;;1.8;;
53674;SDS011;39574;50.534;8.500;2022-11-09T00:23:41;4.0;;;1.8;;
53674;SDS011;39574;50.534;8.500;2022-11-09T00:28:40;3.8;;;1.7;;
53674;SDS011;39574;50.534;8.500;2022-11-09T00:33:40;3.8;;;1.7;;
53674;SDS011;39574;50.534;8.500;2022-11-09T00:38:39;4.9;;;2.5;;
53674;SDS011;39574;50.534;8.500;2022-11-09T00:43:38;6.5;;;3.3;;
53674;SDS011;39574;50.534;8.500;2022-11-09T00:48:37;7.5;;;3.9;;
53674;SDS011;39574;50.534;8.500;2022-11-09T00:53:36;7.5;;;4.1;;
53674;SDS011;39574;50.534;8.500;2022-11-09T00:58:36;8.1;;;4.3;;
53674;SDS011;39574;50.534;8.500;2022-11-09T01:03:35;8.7;;;4.6;;
53674;SDS011;39574;50.534;8.500;2022-11-09T01:08:34;9.6;;;4.4;;
53674;SDS011;39574;50.534;8.500;2022-11-09T01:13:33;7.8;;;3.7;;
53674;SDS011;39574;50.534;8.500;2022-11-09T01:18:34;5.9;;;2.9;;
53674;SDS011;39574;50.534;8.500;2022-11-09T01:23:31;5.0;;;2.6;;
53674;SDS011;39574;50.534;8.500;2022-11-09T01:28:31;4.4;;;2.2;;
53674;SDS011;39574;50.534;8.500;2022-11-09T01:33:30;4.5;;;2.1;;
53674;SDS011;39574;50.534;8.500;2022-11-09T01:38:29;4.2;;;2.1;;
53674;SDS011;39574;50.534;8.500;2022-11-09T01:43:28;4.3;;;2.0;;
53674;SDS011;39574;50.534;8.500;2022-11-09T01:48:31;4.8;;;2.1;;
53674;SDS011;39574;50.534;8.500;2022-11-09T01:53:29;4.8;;;2.1;;
53674;SDS011;39574;50.534;8.500;2022-11-09T01:58:26;4.8;;;2.0;;
53674;SDS011;39574;50.534;8.500;2022-11-09T02:03:26;5.6;;;2.7;;
53674;SDS011;39574;50.534;8.500;2022-11-09T02:08:24;4.9;;;2.5;;
53674;SDS011;39574;50.534;8.500;2022-11-09T02:13:23;4.7;;;2.1;;
53674;SDS011;39574;50.534;8.500;2022-11-09T02:18:22;3.6;;;1.8;;
53674;SDS011;39574;50.534;8.500;2022-11-09T02:23:22;3.2;;;1.5;;
53674;SDS011;39574;50.534;8.500;2022-11-09T02:28:21;2.7;;;1.4;;
53674;SDS011;39574;50.534;8.500;2022-11-09T02:33:20;2.7;;;1.3;;
53674;SDS011;39574;50.534;8.500;2022-11-09T02:38:19;3.2;;;1.4;;
53674;SDS011;39574;50.534;8.500;2022-11-09T02:43:18;3.0;;;1.4;;
53674;SDS011;39574;50.534;8.500;2022-11-09T02:48:18;2.8;;;1.3;;
53674;SDS011;39574;50.534;8.500;2022-11-09T02:53:17;2.4;;;1.2;;
53674;SDS011;39574;50.534;8.500;2022-11-09T02:58:16;2.8;;;1.4;;
53674;SDS011;39574;50.534;8.500;2022-11-09T03:03:15;3.1;;;1.3;;
53674;SDS011;39574;50.534;8.500;2022-11-09T03:08:14;3.2;;;1.3;;
53674;SDS011;39574;50.534;8.500;2022-11-09T03:13:13;2.8;;;1.2;;
53674;SDS011;39574;50.534;8.500;2022-11-09T03:18:13;2.5;;;1.1;;
53674;SDS011;39574;50.534;8.500;2022-11-09T03:23:12;2.7;;;1.3;;
53674;SDS011;39574;50.534;8.500;2022-11-09T03:28:11;2.7;;;1.3;;
53674;SDS011;39574;50.534;8.500;2022-11-09T03:33:10;2.6;;;1.2;;
53674;SDS011;39574;50.534;8.500;2022-11-09T03:38:09;3.0;;;1.2;;
53674;SDS011;39574;50.534;8.500;2022-11-09T03:43:09;2.9;;;1.0;;
53674;SDS011;39574;50.534;8.500;2022-11-09T03:48:08;2.4;;;1.0;;
53674;SDS011;39574;50.534;8.500;2022-11-09T03:53:07;2.0;;;0.9;;
53674;SDS011;39574;50.534;8.500;2022-11-09T03:58:07;2.0;;;0.9;;
53674;SDS011;39574;50.534;8.500;2022-11-09T04:03:05;2.5;;;1.0;;
53674;SDS011;39574;50.534;8.500;2022-11-09T04:08:04;2.4;;;1.1;;
53674;SDS011;39574;50.534;8.500;2022-11-09T04:13:04;2.2;;;1.1;;
53674;SDS011;39574;50.534;8.500;2022-11-09T04:18:03;2.1;;;1.2;;
53674;SDS011;39574;50.534;8.500;2022-11-09T04:23:03;2.1;;;1.2;;
53674;SDS011;39574;50.534;8.500;2022-11-09T04:28:02;2.2;;;1.2;;
53674;SDS011;39574;50.534;8.500;2022-11-09T04:33:00;2.5;;;1.2;;
53674;SDS011;39574;50.534;8.500;2022-11-09T04:38:00;2.5;;;1.2;;
53674;SDS011;39574;50.534;8.500;2022-11-09T04:42:59;2.7;;;1.1;;
53674;SDS011;39574;50.534;8.500;2022-11-09T04:47:58;2.8;;;1.1;;
53674;SDS011;39574;50.534;8.500;2022-11-09T04:53:02;2.6;;;1.2;;
53674;SDS011;39574;50.534;8.500;2022-11-09T04:57:56;2.5;;;1.3;;
53674;SDS011;39574;50.534;8.500;2022-11-09T05:02:57;2.7;;;1.2;;
53674;SDS011;39574;50.534;8.500;2022-11-09T05:07:54;2.9;;;1.2;;
53674;SDS011;39574;50.534;8.500;2022-11-09T05:12:57;2.5;;;1.2;;
53674;SDS011;39574;50.534;8.500;2022-11-09T05:17:53;2.3;;;1.2;;
53674;SDS011;39574;50.534;8.500;2022-11-09T05:22:52;2.6;;;1.3;;
53674;SDS011;39574;50.534;8.500;2022-11-09T05:27:51;2.8;;;1.2;;
53674;SDS011;39574;50.534;8.500;2022-11-09T05:32:50;2.5;;;1.1;;
53674;SDS011;39574;50.534;8.500;2022-11-09T05:37:49;2.5;;;0.9;;
53674;SDS011;39574;50.534;8.500;2022-11-09T05:42:49;2.7;;;1.0;;
53674;SDS011;39574;50.534;8.500;2022-11-09T05:47:48;2.1;;;0.9;;
53674;SDS011;39574;50.534;8.500;2022-11-09T05:52:47;1.9;;;0.9;;
53674;SDS011;39574;50.534;8.500;2022-11-09T05:57:46;1.9;;;1.0;;
53674;SDS011;39574;50.534;8.500;2022-11-09T06:02:45;2.1;;;1.0;;
53674;SDS011;39574;50.534;8.500;2022-11-09T06:07:45;2.4;;;1.0;;
53674;SDS011;39574;50.534;8.500;2022-11-09T06:12:44;2.1;;;1.0;;
53674;SDS011;39574;50.534;8.500;2022-11-09T06:17:43;2.1;;;1.0;;
53674;SDS011;39574;50.534;8.500;2022-11-09T06:22:42;2.0;;;1.1;;
53674;SDS011;39574;50.534;8.500;2022-11-09T06:27:41;1.9;;;1.1;;
53674;SDS011;39574;50.534;8.500;2022-11-09T06:32:40;2.3;;;1.1;;
53674;SDS011;39574;50.534;8.500;2022-11-09T06:37:40;2.3;;;1.1;;
53674;SDS011;39574;50.534;8.500;2022-11-09T06:42:39;2.5;;;1.1;;
53674;SDS011;39574;50.534;8.500;2022-11-09T06:47:38;2.4;;;1.4;;
53674;SDS011;39574;50.534;8.500;2022-11-09T06:52:37;2.8;;;1.4;;
53674;SDS011;39574;50.534;8.500;2022-11-09T06:57:36;3.0;;;1.3;;
53674;SDS011;39574;50.534;8.500;2022-11-09T07:02:35;2.8;;;1.2;;
53674;SDS011;39574;50.534;8.500;2022-11-09T07:07:35;2.9;;;1.2;;
53674;SDS011;39574;50.534;8.500;2022-11-09T07:12:34;2.7;;;1.3;;
53674;SDS011;39574;50.534;8.500;2022-11-09T07:17:33;3.0;;;1.4;;
53674;SDS011;39574;50.534;8.500;2022-11-09T07:22:32;2.9;;;1.5;;
53674;SDS011;39574;50.534;8.500;2022-11-09T07:27:31;2.6;;;1.6;;
53674;SDS011;39574;50.534;8.500;2022-11-09T07:32:31;3.1;;;1.6;;
53674;SDS011;39574;50.534;8.500;2022-11-09T07:37:30;3.0;;;1.7;;
53674;SDS011;39574;50.534;8.500;2022-11-09T07:42:29;3.1;;;1.8;;
53674;SDS011;39574;50.534;8.500;2022-11-09T07:47:28;3.3;;;2.0;;
53674;SDS011;39574;50.534;8.500;2022-11-09T07:52:27;3.1;;;2.2;;
53674;SDS011;39574;50.534;8.500;2022-11-09T07:57:26;3.4;;;2.0;;
53674;SDS011;39574;50.534;8.500;2022-11-09T08:02:25;3.5;;;2.0;;
53674;SDS011;39574;50.534;8.500;2022-11-09T08:07:25;3.3;;;2.0;;
53674;SDS011;39574;50.534;8.500;2022-11-09T08:12:24;3.3;;;2.0;;
53674;SDS011;39574;50.534;8.500;2022-11-09T08:17:23;3.3;;;1.9;;
53674;SDS011;39574;50.534;8.500;2022-11-09T08:22:22;3.0;;;1.9;;
53674;SDS011;39574;50.534;8.500;2022-11-09T08:27:21;3.6;;;2.0;;
53674;SDS011;39574;50.534;8.500;2022-11-09T08:32:20;3.4;;;2.1;;
53674;SDS011;39574;50.534;8.500;2022-11-09T08:37:20;3.4;;;2.2;;
53674;SDS011;39574;50.534;8.500;2022-11-09T08:42:19;3.3;;;2.2;;
53674;SDS011;39574;50.534;8.500;2022-11-09T08:47:18;3.0;;;2.1;;
53674;SDS011;39574;50.534;8.500;2022-11-09T08:52:17;3.2;;;1.9;;
53674;SDS011;39574;50.534;8.500;2022-11-09T08:57:16;2.9;;;1.8;;
53674;SDS011;39574;50.534;8.500;2022-11-09T09:02:16;3.2;;;1.7;;
53674;SDS011;39574;50.534;8.500;2022-11-09T09:07:15;3.3;;;1.9;;
53674;SDS011;39574;50.534;8.500;2022-11-09T09:12:14;3.0;;;1.8;;
53674;SDS011;39574;50.534;8.500;2022-11-09T09:17:14;3.4;;;1.8;;
53674;SDS011;39574;50.534;8.500;2022-11-09T09:22:13;3.1;;;1.6;;
53674;SDS011;39574;50.534;8.500;2022-11-09T09:27:12;2.9;;;1.4;;
53674;SDS011;39574;50.534;8.500;2022-11-09T09:32:12;2.7;;;1.5;;
53674;SDS011;39574;50.534;8.500;2022-11-09T09:37:11;2.9;;;1.4;;
53674;SDS011;39574;50.534;8.500;2022-11-09T09:42:13;2.6;;;1.3;;
53674;SDS011;39574;50.534;8.500;2022-11-09T09:47:11;3.3;;;1.4;;
53674;SDS011;39574;50.534;8.500;2022-11-09T09:52:13;3.3;;;1.3;;
53674;SDS011;39574;50.534;8.500;2022-11-09T09:57:12;3.0;;;1.2;;
53674;SDS011;39574;50.534;8.500;2022-11-09T10:02:10;3.2;;;1.4;;
53674;SDS011;39574;50.534;8.500;2022-11-09T10:07:09;3.1;;;1.5;;
53674;SDS011;39574;50.534;8.500;2022-11-09T10:12:09;3.1;;;1.4;;
53674;SDS011;39574;50.534;8.500;2022-11-09T10:17:09;3.8;;;1.5;;
53674;SDS011;39574;50.534;8.500;2022-11-09T10:22:09;3.6;;;1.3;;
53674;SDS011;39574;50.534;8.500;2022-11-09T10:27:08;3.7;;;1.3;;
53674;SDS011;39574;50.534;8.500;2022-11-09T10:32:08;3.6;;;1.2;;
53674;SDS011;39574;50.534;8.500;2022-11-09T10:37:05;3.1;;;1.2;;
53674;SDS011;39574;50.534;8.500;2022-11-09T10:42:03;2.7;;;1.1;;
53674;SDS011;39574;50.534;8.500;2022-11-09T10:47:04;2.3;;;1.1;;
53674;SDS011;39574;50.534;8.500;2022-11-09T10:52:02;2.3;;;1.2;;
53674;SDS011;39574;50.534;8.500;2022-11-09T10:57:02;2.7;;;1.3;;
53674;SDS011;39574;50.534;8.500;2022-11-09T11:02:00;2.9;;;1.2;;
53674;SDS011;39574;50.534;8.500;2022-11-09T11:07:02;3.4;;;1.2;;
53674;SDS011;39574;50.534;8.500;2022-11-09T11:12:05;3.9;;;1.3;;
53674;SDS011;39574;50.534;8.500;2022-11-09T11:16:58;3.8;;;1.4;;
53674;SDS011;39574;50.534;8.500;2022-11-09T11:22:16;4.1;;;1.4;;
53674;SDS011;39574;50.534;8.500;2022-11-09T11:26:58;4.1;;;1.7;;
53674;SDS011;39574;50.534;8.500;2022-11-09T11:31:56;3.9;;;1.5;;
53674;SDS011;39574;50.534;8.500;2022-11-09T11:36:59;3.8;;;1.6;;
53674;SDS011;39574;50.534;8.500;2022-11-09T11:41:59;3.7;;;1.5;;
53674;SDS011;39574;50.534;8.500;2022-11-09T11:46:57;3.6;;;1.4;;
53674;SDS011;39574;50.534;8.500;2022-11-09T11:51:55;3.7;;;1.3;;
53674;SDS011;39574;50.534;8.500;2022-11-09T11:56:54;3.9;;;1.2;;
53674;SDS011;39574;50.534;8.500;2022-11-09T12:01:57;4.2;;;1.2;;
53674;SDS011;39574;50.534;8.500;2022-11-09T12:06:53;3.7;;;1.2;;
53674;SDS011;39574;50.534;8.500;2022-11-09T12:11:53;3.3;;;1.1;;
53674;SDS011;39574;50.534;8.500;2022-11-09T12:16:50;3.4;;;1.0;;
53674;SDS011;39574;50.534;8.500;2022-11-09T12:21:50;3.7;;;1.1;;
53674;SDS011;39574;50.534;8.500;2022-11-09T12:26:51;3.3;;;1.1;;
53674;SDS011;39574;50.534;8.500;2022-11-09T12:31:48;2.9;;;1.1;;
53674;SDS011;39574;50.534;8.500;2022-11-09T12:36:46;2.7;;;1.1;;
53674;SDS011;39574;50.534;8.500;2022-11-09T12:41:45;3.0;;;1.2;;
53674;SDS011;39574;50.534;8.500;2022-11-09T12:46:45;3.6;;;1.3;;
53674;SDS011;39574;50.534;8.500;2022-11-09T12:51:44;4.4;;;1.3;;
53674;SDS011;39574;50.534;8.500;2022-11-09T12:56:44;4.2;;;1.3;;
53674;SDS011;39574;50.534;8.500;2022-11-09T13:01:43;3.7;;;1.3;;
53674;SDS011;39574;50.534;8.500;2022-11-09T13:06:41;4.5;;;1.1;;
53674;SDS011;39574;50.534;8.500;2022-11-09T13:11:41;3.7;;;1.0;;
53674;SDS011;39574;50.534;8.500;2022-11-09T13:16:40;3.2;;;0.9;;
53674;SDS011;39574;50.534;8.500;2022-11-09T13:21:39;3.2;;;1.0;;
53674;SDS011;39574;50.534;8.500;2022-11-09T13:26:52;3.1;;;0.9;;
53674;SDS011;39574;50.534;8.500;2022-11-09T13:32:38;2.8;;;0.8;;
53674;SDS011;39574;50.534;8.500;2022-11-09T13:36:37;2.8;;;0.8;;
53674;SDS011;39574;50.534;8.500;2022-11-09T13:41:40;3.4;;;0.9;;
53674;SDS011;39574;50.534;8.500;2022-11-09T13:46:37;3.8;;;0.9;;
53674;SDS011;39574;50.534;8.500;2022-11-09T13:51:37;3.8;;;0.9;;
53674;SDS011;39574;50.534;8.500;2022-11-09T13:56:34;4.0;;;1.0;;
53674;SDS011;39574;50.534;8.500;2022-11-09T14:01:34;3.6;;;1.1;;
53674;SDS011;39574;50.534;8.500;2022-11-09T14:06:32;3.7;;;1.2;;
53674;SDS011;39574;50.534;8.500;2022-11-09T14:11:37;4.2;;;1.4;;
53674;SDS011;39574;50.534;8.500;2022-11-09T14:16:33;4.0;;;1.3;;
53674;SDS011;39574;50.534;8.500;2022-11-09T14:21:33;4.3;;;1.4;;
53674;SDS011;39574;50.534;8.500;2022-11-09T14:26:29;4.2;;;1.3;;
53674;SDS011;39574;50.534;8.500;2022-11-09T14:31:29;3.9;;;1.2;;
53674;SDS011;39574;50.534;8.500;2022-11-09T14:36:28;4.0;;;1.2;;
53674;SDS011;39574;50.534;8.500;2022-11-09T14:41:27;4.1;;;1.3;;
53674;SDS011;39574;50.534;8.500;2022-11-09T14:46:26;4.5;;;1.4;;
53674;SDS011;39574;50.534;8.500;2022-11-09T14:51:26;5.2;;;1.3;;
53674;SDS011;39574;50.534;8.500;2022-11-09T14:56:24;4.8;;;1.1;;
53674;SDS011;39574;50.534;8.500;2022-11-09T15:01:24;5.5;;;1.7;;
53674;SDS011;39574;50.534;8.500;2022-11-09T15:06:23;7.6;;;2.5;;
53674;SDS011;39574;50.534;8.500;2022-11-09T15:11:29;8.5;;;3.5;;
53674;SDS011;39574;50.534;8.500;2022-11-09T15:16:22;11.9;;;5.5;;
53674;SDS011;39574;50.534;8.500;2022-11-09T15:21:31;11.7;;;5.4;;
53674;SDS011;39574;50.534;8.500;2022-11-09T15:26:24;9.6;;;4.3;;
53674;SDS011;39574;50.534;8.500;2022-11-09T15:31:19;7.6;;;3.4;;
53674;SDS011;39574;50.534;8.500;2022-11-09T15:36:20;5.9;;;2.6;;
53674;SDS011;39574;50.534;8.500;2022-11-09T15:41:18;6.5;;;3.2;;
53674;SDS011;39574;50.534;8.500;2022-11-09T15:46:18;6.8;;;3.2;;
53674;SDS011;39574;50.534;8.500;2022-11-09T15:51:16;7.0;;;3.3;;
53674;SDS011;39574;50.534;8.500;2022-11-09T15:56:16;6.5;;;2.9;;
53674;SDS011;39574;50.534;8.500;2022-11-09T16:01:15;5.7;;;2.4;;
53674;SDS011;39574;50.534;8.500;2022-11-09T16:06:16;6.5;;;3.0;;
53674;SDS011;39574;50.534;8.500;2022-11-09T16:11:13;9.2;;;4.5;;
53674;SDS011;39574;50.534;8.500;2022-11-09T16:16:13;10.9;;;6.3;;
53674;SDS011;39574;50.534;8.500;2022-11-09T16:21:13;10.6;;;6.5;;
53674;SDS011;39574;50.534;8.500;2022-11-09T16:26:13;9.3;;;6.0;;
53674;SDS011;39574;50.534;8.500;2022-11-09T16:31:11;7.3;;;4.3;;
53674;SDS011;39574;50.534;8.500;2022-11-09T16:36:10;7.5;;;3.7;;
53674;SDS011;39574;50.534;8.500;2022-11-09T16:41:09;6.6;;;2.8;;
53674;SDS011;39574;50.534;8.500;2022-11-09T16:46:08;7.3;;;3.4;;
53674;SDS011;39574;50.534;8.500;2022-11-09T16:51:07;8.4;;;4.2;;
53674;SDS011;39574;50.534;8.500;2022-11-09T16:56:06;8.3;;;3.8;;
53674;SDS011;39574;50.534;8.500;2022-11-09T17:01:05;9.3;;;4.0;;
53674;SDS011;39574;50.534;8.500;2022-11-09T17:06:04;8.6;;;3.6;;
53674;SDS011;39574;50.534;8.500;2022-11-09T17:11:05;7.6;;;3.2;;
53674;SDS011;39574;50.534;8.500;2022-11-09T17:16:03;7.7;;;3.7;;
53674;SDS011;39574;50.534;8.500;2022-11-09T17:21:02;10.4;;;4.8;;
53674;SDS011;39574;50.534;8.500;2022-11-09T17:26:02;13.4;;;6.1;;
53674;SDS011;39574;50.534;8.500;2022-11-09T17:31:05;11.6;;;5.1;;
53674;SDS011;39574;50.534;8.500;2022-11-09T17:36:00;9.2;;;3.7;;
53674;SDS011;39574;50.534;8.500;2022-11-09T17:41:00;7.0;;;2.4;;
53674;SDS011;39574;50.534;8.500;2022-11-09T17:46:01;6.6;;;1.8;;
53674;SDS011;39574;50.534;8.500;2022-11-09T17:50:57;6.3;;;1.7;;
53674;SDS011;39574;50.534;8.500;2022-11-09T17:55:56;8.2;;;2.1;;
53674;SDS011;39574;50.534;8.500;2022-11-09T18:00:55;9.1;;;2.8;;
53674;SDS011;39574;50.534;8.500;2022-11-09T18:05:54;9.1;;;3.1;;
53674;SDS011;39574;50.534;8.500;2022-11-09T18:10:55;9.1;;;3.1;;
53674;SDS011;39574;50.534;8.500;2022-11-09T18:15:53;9.0;;;3.3;;
53674;SDS011;39574;50.534;8.500;2022-11-09T18:20:52;9.4;;;3.7;;
53674;SDS011;39574;50.534;8.500;2022-11-09T18:25:54;9.5;;;3.9;;
53674;SDS011;39574;50.534;8.500;2022-11-09T18:30:50;9.9;;;3.9;;
53674;SDS011;39574;50.534;8.500;2022-11-09T18:35:57;10.3;;;3.6;;
53674;SDS011;39574;50.534;8.500;2022-11-09T18:40:55;9.1;;;3.1;;
53674;SDS011;39574;50.534;8.500;2022-11-09T18:45:52;8.5;;;3.0;;
53674;SDS011;39574;50.534;8.500;2022-11-09T18:50:48;6.5;;;2.5;;
53674;SDS011;39574;50.534;8.500;2022-11-09T18:55:46;6.3;;;2.2;;
53674;SDS011;39574;50.534;8.500;2022-11-09T19:00:45;6.3;;;2.0;;
53674;SDS011;39574;50.534;8.500;2022-11-09T19:05:44;7.3;;;2.1;;
53674;SDS011;39574;50.534;8.500;2022-11-09T19:10:43;6.5;;;2.1;;
53674;SDS011;39574;50.534;8.500;2022-11-09T19:15:42;6.2;;;2.5;;
53674;SDS011;39574;50.534;8.500;2022-11-09T19:20:41;6.6;;;2.9;;
53674;SDS011;39574;50.534;8.500;2022-11-09T19:25:41;6.6;;;2.7;;
53674;SDS011;39574;50.534;8.500;2022-11-09T19:30:40;5.6;;;2.4;;
53674;SDS011;39574;50.534;8.500;2022-11-09T19:35:39;5.4;;;2.2;;
53674;SDS011;39574;50.534;8.500;2022-11-09T19:40:38;5.0;;;1.9;;
53674;SDS011;39574;50.534;8.500;2022-11-09T19:45:38;5.3;;;2.2;;
53674;SDS011;39574;50.534;8.500;2022-11-09T19:50:36;7.3;;;2.0;;
53674;SDS011;39574;50.534;8.500;2022-11-09T19:55:35;7.6;;;2.0;;
53674;SDS011;39574;50.534;8.500;2022-11-09T20:00:34;6.7;;;1.8;;
53674;SDS011;39574;50.534;8.500;2022-11-09T20:05:34;6.3;;;1.6;;
53674;SDS011;39574;50.534;8.500;2022-11-09T20:10:34;5.8;;;1.7;;
53674;SDS011;39574;50.534;8.500;2022-11-09T20:15:32;5.8;;;2.0;;
53674;SDS011;39574;50.534;8.500;2022-11-09T20:20:31;6.8;;;2.3;;
53674;SDS011;39574;50.534;8.500;2022-11-09T20:25:30;7.5;;;2.3;;
53674;SDS011;39574;50.534;8.500;2022-11-09T20:30:29;8.4;;;2.5;;
53674;SDS011;39574;50.534;8.500;2022-11-09T20:35:28;8.9;;;2.7;;
53674;SDS011;39574;50.534;8.500;2022-11-09T20:40:27;8.6;;;3.2;;
53674;SDS011;39574;50.534;8.500;2022-11-09T20:45:27;8.7;;;3.7;;
53674;SDS011;39574;50.534;8.500;2022-11-09T20:50:26;7.9;;;3.6;;
53674;SDS011;39574;50.534;8.500;2022-11-09T20:55:25;7.8;;;3.3;;
53674;SDS011;39574;50.534;8.500;2022-11-09T21:00:24;7.5;;;3.0;;
53674;SDS011;39574;50.534;8.500;2022-11-09T21:05:23;7.4;;;3.0;;
53674;SDS011;39574;50.534;8.500;2022-11-09T21:10:22;7.8;;;2.8;;
53674;SDS011;39574;50.534;8.500;2022-11-09T21:15:21;8.0;;;2.7;;
53674;SDS011;39574;50.534;8.500;2022-11-09T21:20:20;7.2;;;2.6;;
53674;SDS011;39574;50.534;8.500;2022-11-09T21:25:19;6.9;;;2.6;;
53674;SDS011;39574;50.534;8.500;2022-11-09T21:30:18;7.5;;;2.7;;
53674;SDS011;39574;50.534;8.500;2022-11-09T21:35:17;7.5;;;2.8;;
53674;SDS011;39574;50.534;8.500;2022-11-09T21:40:16;8.4;;;2.9;;
53674;SDS011;39574;50.534;8.500;2022-11-09T21:45:15;7.9;;;2.8;;
53674;SDS011;39574;50.534;8.500;2022-11-09T21:50:15;8.5;;;2.9;;
53674;SDS011;39574;50.534;8.500;2022-11-09T21:55:14;9.3;;;2.9;;
53674;SDS011;39574;50.534;8.500;2022-11-09T22:00:13;9.8;;;3.6;;
53674;SDS011;39574;50.534;8.500;2022-11-09T22:05:12;9.5;;;3.5;;
53674;SDS011;39574;50.534;8.500;2022-11-09T22:10:11;9.8;;;3.6;;
53674;SDS011;39574;50.534;8.500;2022-11-09T22:15:10;8.7;;;3.5;;
53674;SDS011;39574;50.534;8.500;2022-11-09T22:20:09;9.1;;;3.5;;
53674;SDS011;39574;50.534;8.500;2022-11-09T22:25:08;10.4;;;4.1;;
53674;SDS011;39574;50.534;8.500;2022-11-09T22:30:07;9.1;;;3.5;;
53674;SDS011;39574;50.534;8.500;2022-11-09T22:35:06;9.3;;;3.2;;
53674;SDS011;39574;50.534;8.500;2022-11-09T22:40:06;9.7;;;2.8;;
53674;SDS011;39574;50.534;8.500;2022-11-09T22:45:05;9.2;;;2.5;;
53674;SDS011;39574;50.534;8.500;2022-11-09T22:50:04;8.7;;;2.4;;
53674;SDS011;39574;50.534;8.500;2022-11-09T22:55:03;7.7;;;2.5;;
53674;SDS011;39574;50.534;8.500;2022-11-09T23:00:03;7.2;;;2.4;;
53674;SDS011;39574;50.534;8.500;2022-11-09T23:05:01;7.8;;;2.4;;
53674;SDS011;39574;50.534;8.500;2022-11-09T23:10:00;7.6;;;2.5;;
53674;SDS011;39574;50.534;8.500;2022-11-09T23:14:59;7.6;;;2.3;;
53674;SDS011;39574;50.534;8.500;2022-11-09T23:19:58;7.3;;;2.2;;
53674;SDS011;39574;50.534;8.500;2022-11-09T23:24:57;7.4;;;2.4;;
53674;SDS011;39574;50.534;8.500;2022-11-09T23:29:56;8.1;;;2.3;;
53674;SDS011;39574;50.534;8.500;2022-11-09T23:34:55;8.9;;;2.4;;
53674;SDS011;39574;50.534;8.500;2022-11-09T23:39:54;8.9;;;2.4;;
53674;SDS011;39574;50.534;8.500;2022-11-09T23:44:53;8.8;;;2.4;;
53674;SDS011;39574;50.534;8.500;2022-11-09T23:49:52;7.7;;;2.3;;
53674;SDS011;39574;50.534;8.500;2022-11-09T23:54:51;8.3;;;2.3;;
53674;SDS011;39574;50.534;8.500;2022-11-09T23:59:50;8.7;;;2.5;;
